Time;durP1;ratioP1;P1;durP2;ratioP2;P2;SDS_P1;SDS_P2;PMS_P1;PMS_P2;Temp;Humidity;BMP_temperature;BMP_pressure;BME280_temperature;BME280_humidity;BME280_pressure;Samples;Min_cycle;Max_cycle;Signal;HPM_P1;HPM_P2
2021/01/09 00:00:34;;;;;;;21.83;9.88;;;1.60;99.90;;;;;;4999982;28;20508;-84
2021/01/09 00:03:00;;;;;;;18.63;10.25;;;1.60;99.90;;;;;;4992585;28;20101;-83
2021/01/09 00:05:25;;;;;;;18.85;9.07;;;1.60;99.90;;;;;;5008284;28;20065;-84
2021/01/09 00:07:51;;;;;;;25.48;9.88;;;1.70;99.90;;;;;;4989148;28;20051;-84
2021/01/09 00:10:16;;;;;;;20.02;9.60;;;1.80;99.90;;;;;;4991029;28;20038;-84
2021/01/09 00:12:42;;;;;;;22.20;10.82;;;1.80;99.90;;;;;;4994335;28;20048;-86
2021/01/09 00:15:09;;;;;;;23.45;10.60;;;1.70;99.90;;;;;;4995194;28;20049;-84
2021/01/09 00:17:35;;;;;;;18.23;9.52;;;1.70;99.90;;;;;;4995376;28;20035;-85
2021/01/09 00:20:10;;;;;;;22.15;9.77;;;1.70;99.90;;;;;;4997542;28;20143;-84
2021/01/09 00:22:35;;;;;;;;;;;1.60;99.90;;;;;;5004068;28;20042;-84
2021/01/09 00:25:02;;;;;;;21.52;9.68;;;1.70;99.90;;;;;;4996561;28;20771;-85
2021/01/09 00:27:27;;;;;;;22.98;10.70;;;1.70;99.90;;;;;;4972985;28;20042;-85
2021/01/09 00:29:53;;;;;;;24.25;10.27;;;1.70;99.90;;;;;;4990692;28;20040;-86
2021/01/09 00:32:19;;;;;;;21.85;10.95;;;1.70;99.90;;;;;;4989263;28;20042;-88
2021/01/09 00:34:44;;;;;;;19.88;10.27;;;1.80;99.90;;;;;;4970380;28;20045;-87
2021/01/09 00:37:11;;;;;;;20.10;9.98;;;1.70;99.90;;;;;;4989179;28;20046;-87
2021/01/09 00:39:37;;;;;;;19.70;10.15;;;1.70;99.90;;;;;;4993152;28;20060;-86
2021/01/09 00:42:03;;;;;;;20.45;9.65;;;1.70;99.90;;;;;;4996001;28;20030;-85
2021/01/09 00:44:29;;;;;;;19.40;10.60;;;1.70;99.90;;;;;;5010031;28;20049;-85
2021/01/09 00:46:58;;;;;;;19.80;10.15;;;1.70;99.90;;;;;;5000341;28;20110;-84
2021/01/09 00:49:24;;;;;;;23.63;10.25;;;1.70;99.90;;;;;;5011930;28;20098;-85
2021/01/09 00:51:50;;;;;;;25.00;10.98;;;1.60;99.90;;;;;;5002717;28;20332;-85
2021/01/09 00:54:15;;;;;;;16.70;9.82;;;1.70;99.90;;;;;;4995900;28;20900;-87
2021/01/09 00:56:41;;;;;;;23.20;9.85;;;1.60;99.90;;;;;;5004515;28;20033;-90
2021/01/09 00:59:07;;;;;;;18.60;9.45;;;1.70;99.90;;;;;;4991618;28;20080;-89
2021/01/09 01:01:33;;;;;;;21.13;9.13;;;1.80;99.90;;;;;;5007839;28;20047;-85
2021/01/09 01:03:59;;;;;;;22.85;10.68;;;1.80;99.90;;;;;;5004461;28;20034;-85
2021/01/09 01:06:25;;;;;;;24.20;9.65;;;1.80;99.90;;;;;;4994765;28;20041;-84
2021/01/09 01:08:52;;;;;;;21.13;10.73;;;1.70;99.90;;;;;;4976837;28;20042;-84
2021/01/09 01:11:26;;;;;;;22.00;10.85;;;1.70;99.90;;;;;;4974657;28;20499;-87
2021/01/09 01:13:52;;;;;;;23.45;10.07;;;1.70;99.90;;;;;;5001015;28;20038;-89
2021/01/09 01:16:18;;;;;;;21.15;10.40;;;1.80;99.90;;;;;;5001804;28;20057;-88
2021/01/09 01:18:44;;;;;;;17.75;9.98;;;1.80;99.90;;;;;;5003683;28;20023;-87
2021/01/09 01:21:09;;;;;;;20.40;10.85;;;1.80;99.90;;;;;;4994743;28;20077;-88
2021/01/09 01:23:35;;;;;;;20.63;10.13;;;1.80;99.90;;;;;;4986723;28;20061;-88
2021/01/09 01:26:00;;;;;;;20.33;10.05;;;1.80;99.90;;;;;;4993050;28;20053;-88
2021/01/09 01:28:26;;;;;;;23.52;10.95;;;1.90;99.90;;;;;;4978333;28;20042;-85
2021/01/09 01:30:51;;;;;;;20.67;10.85;;;1.80;99.90;;;;;;4994621;28;20708;-85
2021/01/09 01:33:17;;;;;;;24.23;10.88;;;1.90;99.90;;;;;;4996165;28;20045;-85
2021/01/09 01:35:43;;;;;;;20.45;10.55;;;1.90;99.90;;;;;;4994675;28;20052;-85
2021/01/09 01:38:08;;;;;;;20.55;10.07;;;1.80;99.90;;;;;;4993739;28;20161;-85
2021/01/09 01:40:34;;;;;;;23.90;10.98;;;1.80;99.90;;;;;;4996047;28;20073;-85
2021/01/09 01:42:59;;;;;;;27.33;11.85;;;1.80;99.90;;;;;;4995161;28;20084;-85
2021/01/09 01:45:25;;;;;;;23.23;9.93;;;1.90;99.90;;;;;;4995261;28;20038;-86
2021/01/09 01:47:50;;;;;;;19.35;9.93;;;1.90;99.90;;;;;;4981003;28;20042;-85
2021/01/09 01:50:16;;;;;;;21.80;10.90;;;1.90;99.90;;;;;;5003986;28;20034;-86
2021/01/09 01:52:42;;;;;;;22.45;11.18;;;1.80;99.90;;;;;;5010230;28;20065;-85
2021/01/09 01:55:09;;;;;;;23.38;12.02;;;1.90;99.90;;;;;;4994927;28;20046;-87
2021/01/09 01:57:35;;;;;;;25.05;11.90;;;1.80;99.90;;;;;;5006430;28;20115;-86
2021/01/09 02:00:01;;;;;;;23.10;11.32;;;1.80;99.90;;;;;;4998062;28;20170;-86
2021/01/09 02:02:26;;;;;;;23.85;12.05;;;1.90;99.90;;;;;;4993293;28;20125;-86
2021/01/09 02:04:58;;;;;;;25.95;12.20;;;1.80;99.90;;;;;;5007041;28;20102;-83
2021/01/09 02:07:28;;;;;;;29.17;12.77;;;1.70;99.90;;;;;;4998369;28;20112;-87
2021/01/09 02:09:56;;;;;;;22.70;11.90;;;1.80;99.90;;;;;;4987753;28;20107;-88
2021/01/09 02:12:41;;;;;;;23.65;11.98;;;1.90;99.90;;;;;;4991653;28;20038;-86
2021/01/09 02:15:07;;;;;;;29.63;13.43;;;1.90;99.90;;;;;;5001357;28;20033;-87
2021/01/09 02:17:35;;;;;;;27.90;12.50;;;1.90;99.90;;;;;;5006080;28;20034;-88
2021/01/09 02:20:02;;;;;;;23.35;12.05;;;1.90;99.90;;;;;;5009032;28;20041;-88
2021/01/09 02:22:32;;;;;;;26.33;12.93;;;1.80;99.90;;;;;;5009834;28;20030;-87
2021/01/09 02:24:57;;;;;;;35.63;13.57;;;1.80;99.90;;;;;;5008957;28;20034;-87
2021/01/09 02:27:23;;;;;;;27.80;13.43;;;1.80;99.90;;;;;;4992151;28;20576;-87
2021/01/09 02:29:58;;;;;;;28.67;14.98;;;1.80;99.90;;;;;;4968034;28;20066;-88
2021/01/09 02:32:38;;;;;;;31.35;14.23;;;1.90;99.90;;;;;;4990936;28;20494;-85
2021/01/09 02:35:07;;;;;;;27.50;13.95;;;1.90;99.90;;;;;;4986594;28;20218;-89
2021/01/09 02:37:32;;;;;;;30.20;13.18;;;1.90;99.90;;;;;;4994360;28;20066;-87
2021/01/09 02:39:58;;;;;;;33.85;15.45;;;2.00;99.90;;;;;;4968476;28;20112;-87
2021/01/09 02:42:24;;;;;;;27.20;13.60;;;2.00;99.90;;;;;;4988887;28;20064;-86
2021/01/09 02:44:51;;;;;;;32.05;12.82;;;1.90;99.90;;;;;;4991525;28;20107;-85
2021/01/09 02:47:17;;;;;;;25.63;13.43;;;2.00;99.90;;;;;;4989393;28;20046;-87
2021/01/09 02:49:43;;;;;;;28.75;14.98;;;1.90;99.90;;;;;;4973222;28;20041;-85
2021/01/09 02:52:08;;;;;;;28.20;13.93;;;2.00;99.90;;;;;;4997325;28;20056;-85
2021/01/09 02:54:34;;;;;;;30.52;14.05;;;2.00;99.90;;;;;;4994432;28;20049;-85
2021/01/09 02:57:00;;;;;;;28.88;14.07;;;1.90;99.90;;;;;;4994169;28;20520;-86
2021/01/09 02:59:25;;;;;;;28.73;13.73;;;1.90;99.90;;;;;;4986461;28;20042;-85
2021/01/09 03:01:51;;;;;;;31.77;15.27;;;1.90;99.90;;;;;;5000125;28;20041;-84
2021/01/09 03:04:16;;;;;;;31.88;14.77;;;1.90;99.90;;;;;;5020098;28;20029;-86
2021/01/09 03:06:42;;;;;;;30.75;14.90;;;1.90;99.90;;;;;;5015953;28;20042;-86
2021/01/09 03:09:08;;;;;;;29.52;14.23;;;1.90;99.90;;;;;;5016412;28;20251;-85
2021/01/09 03:11:33;;;;;;;29.75;14.30;;;1.90;99.90;;;;;;5006581;28;20061;-85
2021/01/09 03:13:59;;;;;;;37.58;15.55;;;1.90;99.90;;;;;;4999715;28;20125;-87
2021/01/09 03:16:25;;;;;;;31.23;14.90;;;1.90;99.90;;;;;;5015717;28;20073;-87
2021/01/09 03:18:50;;;;;;;34.15;14.73;;;1.90;99.90;;;;;;4994864;28;20046;-85
2021/01/09 03:21:16;;;;;;;31.20;15.38;;;1.80;99.90;;;;;;5003916;28;20046;-86
2021/01/09 03:23:41;;;;;;;34.15;16.33;;;1.80;99.90;;;;;;4995650;28;20037;-86
2021/01/09 03:26:07;;;;;;;32.92;16.80;;;1.90;99.90;;;;;;4985231;28;20177;-86
2021/01/09 03:28:32;;;;;;;29.13;14.52;;;1.90;99.90;;;;;;4982854;28;20392;-85
2021/01/09 03:30:58;;;;;;;30.92;14.93;;;1.90;99.90;;;;;;4968359;28;20411;-85
2021/01/09 03:33:24;;;;;;;31.67;15.00;;;1.90;99.90;;;;;;4990784;28;20185;-86
2021/01/09 03:35:49;;;;;;;34.85;15.77;;;1.90;99.90;;;;;;4968587;28;20038;-86
2021/01/09 03:38:15;;;;;;;34.25;16.17;;;1.90;99.90;;;;;;4988287;28;20073;-87
2021/01/09 03:40:40;;;;;;;32.00;14.85;;;1.90;99.90;;;;;;4994539;28;20200;-86
2021/01/09 03:43:06;;;;;;;35.08;15.75;;;1.90;99.90;;;;;;4988161;28;20034;-83
2021/01/09 03:45:31;;;;;;;40.05;17.00;;;1.90;99.90;;;;;;4983891;28;20042;-84
2021/01/09 03:47:57;;;;;;;34.25;16.65;;;1.90;99.90;;;;;;4991533;28;20052;-86
2021/01/09 03:50:23;;;;;;;34.20;17.55;;;1.90;99.90;;;;;;5000966;28;20042;-85
2021/01/09 03:52:48;;;;;;;32.72;16.40;;;1.90;99.90;;;;;;5004152;28;20066;-87
2021/01/09 03:55:14;;;;;;;33.83;16.67;;;1.90;99.90;;;;;;5007232;28;20033;-86
2021/01/09 03:57:39;;;;;;;42.05;17.25;;;1.90;99.90;;;;;;5007338;28;20058;-86
2021/01/09 04:00:06;;;;;;;32.65;16.30;;;1.80;99.90;;;;;;4984221;28;20057;-87
2021/01/09 04:02:32;;;;;;;34.65;16.92;;;1.80;99.90;;;;;;5003003;28;20038;-87
2021/01/09 04:04:57;;;;;;;31.80;15.95;;;1.80;99.90;;;;;;4995618;28;20037;-86
2021/01/09 04:07:23;;;;;;;36.58;17.10;;;1.90;99.90;;;;;;4984290;28;20530;-86
2021/01/09 04:09:49;;;;;;;33.20;16.20;;;1.80;99.90;;;;;;4977107;28;20145;-85
2021/01/09 04:12:14;;;;;;;31.85;16.52;;;1.90;99.90;;;;;;4993600;28;20042;-87
2021/01/09 04:14:40;;;;;;;35.80;16.63;;;1.90;99.90;;;;;;4988801;28;20117;-84
2021/01/09 04:17:05;;;;;;;34.00;15.82;;;1.90;99.90;;;;;;4992864;28;20703;-86
2021/01/09 04:19:31;;;;;;;39.72;17.27;;;1.80;99.90;;;;;;4991572;28;20038;-87
2021/01/09 04:21:56;;;;;;;37.47;16.58;;;1.80;99.90;;;;;;4990862;28;20050;-86
2021/01/09 04:24:23;;;;;;;35.35;16.77;;;1.80;99.90;;;;;;4989567;28;20072;-86
2021/01/09 04:26:56;;;;;;;31.60;16.65;;;1.90;99.90;;;;;;4973546;28;20105;-86
2021/01/09 04:29:22;;;;;;;38.92;17.23;;;1.80;99.90;;;;;;4991816;28;20042;-87
2021/01/09 04:31:48;;;;;;;41.47;20.50;;;1.70;99.90;;;;;;4967786;28;20555;-87
2021/01/09 04:34:14;;;;;;;37.72;17.88;;;1.70;99.90;;;;;;4989744;28;20121;-86
2021/01/09 04:36:40;;;;;;;40.13;17.85;;;1.70;99.90;;;;;;4980372;28;20141;-87
2021/01/09 04:39:06;;;;;;;45.10;19.40;;;1.80;99.90;;;;;;4986342;28;20109;-86
2021/01/09 04:41:37;;;;;;;38.88;18.25;;;1.80;99.90;;;;;;4988891;28;20095;-85
2021/01/09 04:44:04;;;;;;;40.40;18.33;;;1.80;99.90;;;;;;4969428;28;20118;-84
2021/01/09 04:46:36;;;;;;;41.05;17.98;;;1.80;99.90;;;;;;4967028;28;20379;-84
2021/01/09 04:49:02;;;;;;;41.10;15.43;;;1.80;99.90;;;;;;4985233;28;20034;-85
2021/01/09 04:51:28;;;;;;;38.72;17.13;;;1.70;99.90;;;;;;4966771;28;20533;-85
2021/01/09 04:53:55;;;;;;;42.08;18.88;;;1.80;99.90;;;;;;4985839;28;20092;-86
2021/01/09 04:56:21;;;;;;;39.00;18.02;;;1.80;99.90;;;;;;4970099;28;20033;-86
2021/01/09 04:58:47;;;;;;;39.50;19.75;;;1.80;99.90;;;;;;4985347;28;20030;-85
2021/01/09 05:01:13;;;;;;;41.63;18.63;;;1.80;99.90;;;;;;4977409;28;20727;-87
2021/01/09 05:03:39;;;;;;;39.80;17.25;;;1.90;99.90;;;;;;4984147;28;20149;-85
2021/01/09 05:06:05;;;;;;;38.40;17.58;;;1.90;99.90;;;;;;4989845;28;20110;-86
2021/01/09 05:08:31;;;;;;;40.65;18.85;;;1.90;99.90;;;;;;5008105;28;20046;-87
2021/01/09 05:10:57;;;;;;;34.33;17.40;;;1.90;99.90;;;;;;5009510;28;20035;-85
2021/01/09 05:13:23;;;;;;;41.85;18.02;;;1.90;99.90;;;;;;5003123;28;20081;-85
2021/01/09 05:15:49;;;;;;;37.00;18.27;;;2.00;99.90;;;;;;4995064;28;20495;-84
2021/01/09 05:18:16;;;;;;;43.70;18.38;;;1.90;99.90;;;;;;4984587;28;20668;-87
2021/01/09 05:20:43;;;;;;;38.58;18.83;;;1.90;99.90;;;;;;4992407;28;20046;-85
2021/01/09 05:23:10;;;;;;;44.15;19.77;;;1.90;99.90;;;;;;4991571;28;20733;-85
2021/01/09 05:25:36;;;;;;;39.15;18.83;;;1.80;99.90;;;;;;4992365;28;20176;-84
2021/01/09 05:28:05;;;;;;;43.83;19.25;;;1.70;99.90;;;;;;4989951;28;20046;-87
2021/01/09 05:30:32;;;;;;;38.60;17.83;;;1.70;99.90;;;;;;4994946;28;20140;-85
2021/01/09 05:33:00;;;;;;;46.00;19.67;;;1.70;99.90;;;;;;4989599;28;20033;-86
2021/01/09 05:35:28;;;;;;;43.50;19.02;;;1.70;99.90;;;;;;4978866;28;20046;-86
2021/01/09 05:37:54;;;;;;;53.35;19.80;;;1.70;99.90;;;;;;4994661;28;20107;-85
2021/01/09 05:40:20;;;;;;;44.28;20.60;;;1.60;99.90;;;;;;4980640;28;20371;-85
2021/01/09 05:42:46;;;;;;;45.97;20.80;;;1.70;99.90;;;;;;4989129;28;20816;-83
2021/01/09 05:45:13;;;;;;;44.75;19.92;;;1.70;99.90;;;;;;4970216;28;20087;-85
2021/01/09 05:47:39;;;;;;;46.00;21.38;;;1.70;99.90;;;;;;4984290;28;20038;-84
2021/01/09 05:50:06;;;;;;;45.38;20.85;;;1.70;99.90;;;;;;4990229;28;20069;-85
2021/01/09 05:52:39;;;;;;;47.45;20.35;;;1.70;99.90;;;;;;4999670;28;20066;-88
2021/01/09 05:55:07;;;;;;;53.60;21.35;;;1.70;99.90;;;;;;5003325;28;20074;-85
2021/01/09 05:57:34;;;;;;;51.53;21.15;;;1.70;99.90;;;;;;5000577;28;20042;-85
2021/01/09 06:00:12;;;;;;;41.28;20.17;;;1.70;99.90;;;;;;5000925;28;20046;-84
2021/01/09 06:02:58;;;;;;;48.08;20.33;;;1.70;99.90;;;;;;5003735;28;20038;-86
2021/01/09 06:05:33;;;;;;;49.47;20.63;;;1.70;99.90;;;;;;5006222;28;20030;-83
2021/01/09 06:08:01;;;;;;;46.80;19.50;;;1.60;99.90;;;;;;4998416;28;20044;-86
2021/01/09 06:10:29;;;;;;;50.55;22.55;;;1.60;99.90;;;;;;5005929;28;20097;-83
2021/01/09 06:13:00;;;;;;;47.15;20.77;;;1.60;99.90;;;;;;5007652;28;20038;-82
2021/01/09 06:15:33;;;;;;;46.33;21.48;;;1.60;99.90;;;;;;5000426;28;21155;-87
2021/01/09 06:18:00;;;;;;;42.63;18.85;;;1.60;99.90;;;;;;5009555;28;20041;-82
2021/01/09 06:20:29;;;;;;;51.92;21.10;;;1.50;99.90;;;;;;4990861;28;20057;-83
2021/01/09 06:22:57;;;;;;;44.15;19.80;;;1.50;99.90;;;;;;5011429;28;20038;-87
2021/01/09 06:25:23;;;;;;;44.00;19.65;;;1.50;99.90;;;;;;5000279;28;20572;-87
2021/01/09 06:27:52;;;;;;;44.22;21.08;;;1.50;99.90;;;;;;4989199;28;20052;-87
2021/01/09 06:30:20;;;;;;;45.90;20.27;;;1.50;99.90;;;;;;4974962;28;20459;-88
2021/01/09 06:32:58;;;;;;;55.08;22.48;;;1.50;99.90;;;;;;5015813;28;20022;-85
2021/01/09 06:35:24;;;;;;;47.55;21.20;;;1.40;99.90;;;;;;5003827;28;20026;-86
2021/01/09 06:37:50;;;;;;;51.08;21.85;;;1.50;99.90;;;;;;5003334;28;20050;-86
2021/01/09 06:40:16;;;;;;;53.72;21.92;;;1.50;99.90;;;;;;4999394;28;20041;-85
2021/01/09 06:42:48;;;;;;;51.50;21.42;;;1.60;99.90;;;;;;5009807;28;20049;-84
2021/01/09 06:45:15;;;;;;;48.00;20.83;;;1.50;99.90;;;;;;4993533;28;20121;-85
2021/01/09 06:47:41;;;;;;;51.33;21.33;;;1.50;99.90;;;;;;5010118;28;20042;-85
2021/01/09 06:50:18;;;;;;;54.17;20.98;;;1.50;99.90;;;;;;5014162;28;20041;-83
2021/01/09 06:52:53;;;;;;;47.58;20.42;;;1.50;99.90;;;;;;5010959;28;20034;-85
2021/01/09 06:55:37;;;;;;;51.53;21.85;;;1.50;99.90;;;;;;5012551;28;20086;-84
2021/01/09 06:58:07;;;;;;;50.80;22.67;;;1.60;99.90;;;;;;5012604;28;20477;-85
2021/01/09 07:00:33;;;;;;;58.70;21.90;;;1.60;99.90;;;;;;5006882;28;20048;-85
2021/01/09 07:03:11;;;;;;;48.53;22.25;;;1.60;99.90;;;;;;5001266;28;20070;-84
2021/01/09 07:05:44;;;;;;;48.92;22.25;;;1.60;99.90;;;;;;5011897;28;20088;-84
2021/01/09 07:08:17;;;;;;;46.35;21.50;;;1.60;99.90;;;;;;5012629;28;20042;-84
2021/01/09 07:10:53;;;;;;;49.83;20.77;;;1.60;99.90;;;;;;4996960;28;20038;-88
2021/01/09 07:13:21;;;;;;;46.83;22.10;;;1.70;99.90;;;;;;5007909;28;20049;-87
2021/01/09 07:15:48;;;;;;;46.03;20.42;;;1.70;99.90;;;;;;5005960;28;20058;-87
2021/01/09 07:18:19;;;;;;;51.00;21.35;;;1.70;99.90;;;;;;4985854;28;20065;-85
2021/01/09 07:20:51;;;;;;;45.75;20.23;;;1.70;99.90;;;;;;5005368;28;20041;-87
2021/01/09 07:23:21;;;;;;;49.72;22.95;;;1.70;99.90;;;;;;5003824;28;20303;-87
2021/01/09 07:25:47;;;;;;;50.83;21.50;;;1.70;99.90;;;;;;5010588;28;20046;-85
2021/01/09 07:28:15;;;;;;;51.20;23.02;;;1.70;99.90;;;;;;5014879;28;20044;-88
2021/01/09 07:30:42;;;;;;;58.33;23.85;;;1.70;99.90;;;;;;5014210;28;20034;-87
2021/01/09 07:33:09;;;;;;;57.30;22.70;;;1.70;99.90;;;;;;5009253;28;20049;-86
2021/01/09 07:35:37;;;;;;;51.00;22.10;;;1.60;99.90;;;;;;5006233;28;20041;-84
2021/01/09 07:38:05;;;;;;;52.05;22.40;;;1.60;99.90;;;;;;4990687;28;20501;-84
2021/01/09 07:40:52;;;;;;;57.00;24.27;;;1.70;99.90;;;;;;5007404;28;20404;-84
2021/01/09 07:43:41;;;;;;;54.65;23.50;;;1.60;99.90;;;;;;5006034;28;20059;-87
2021/01/09 07:46:25;;;;;;;52.97;23.85;;;1.60;99.90;;;;;;4997710;28;20508;-87
2021/01/09 07:48:52;;;;;;;53.17;22.67;;;1.50;99.90;;;;;;4990716;28;20030;-86
2021/01/09 07:51:18;;;;;;;53.85;21.67;;;1.50;99.90;;;;;;4971213;28;20042;-86
2021/01/09 07:53:48;;;;;;;54.55;24.63;;;1.40;99.90;;;;;;4989101;28;20038;-86
2021/01/09 07:56:36;;;;;;;60.80;24.98;;;1.30;99.90;;;;;;4990189;28;20038;-87
2021/01/09 07:59:04;;;;;;;59.85;23.88;;;1.30;99.90;;;;;;4989492;28;20124;-84
2021/01/09 08:01:39;;;;;;;49.20;22.58;;;1.40;99.90;;;;;;4993654;28;20053;-88
2021/01/09 08:04:08;;;;;;;50.50;22.92;;;1.30;99.90;;;;;;4998035;28;20393;-87
2021/01/09 08:06:36;;;;;;;53.75;23.40;;;1.30;99.90;;;;;;4996584;28;20258;-85
2021/01/09 08:09:02;;;;;;;50.30;21.38;;;1.30;99.90;;;;;;4985331;28;20117;-87
2021/01/09 08:11:28;;;;;;;49.95;22.48;;;1.30;99.90;;;;;;4988156;28;20038;-83
2021/01/09 08:14:03;;;;;;;54.53;22.73;;;1.40;99.90;;;;;;4993527;28;20038;-83
2021/01/09 08:16:28;;;;;;;50.65;22.33;;;1.40;99.90;;;;;;4996383;28;20041;-88
2021/01/09 08:19:20;;;;;;;50.47;22.08;;;1.50;99.90;;;;;;4972348;28;20034;-86
2021/01/09 08:21:53;;;;;;;49.92;22.52;;;1.40;99.90;;;;;;5007168;28;20053;-82
2021/01/09 08:24:23;;;;;;;52.33;21.85;;;1.40;99.90;;;;;;4992635;28;20046;-85
2021/01/09 08:26:53;;;;;;;52.33;22.67;;;1.40;99.90;;;;;;4993357;28;20376;-87
2021/01/09 08:29:26;;;;;;;61.72;26.90;;;1.50;99.90;;;;;;4981915;28;20557;-87
2021/01/09 08:31:54;;;;;;;61.47;26.37;;;1.50;99.90;;;;;;4983411;28;20031;-87
2021/01/09 08:34:21;;;;;;;57.33;24.38;;;1.60;99.90;;;;;;4991819;28;20388;-84
2021/01/09 08:36:59;;;;;;;51.15;23.42;;;1.60;99.90;;;;;;4989036;28;20049;-83
2021/01/09 08:39:25;;;;;;;56.25;24.30;;;1.60;99.90;;;;;;4974379;28;20037;-81
2021/01/09 08:41:51;;;;;;;55.35;21.98;;;1.70;99.90;;;;;;4990761;28;20246;-81
2021/01/09 08:44:17;;;;;;;55.90;23.98;;;1.50;99.90;;;;;;4991854;28;20037;-83
2021/01/09 08:46:44;;;;;;;59.95;25.80;;;1.60;99.90;;;;;;4991624;28;20830;-83
2021/01/09 08:49:25;;;;;;;54.85;23.08;;;1.60;99.90;;;;;;4988477;28;20095;-83
2021/01/09 08:52:11;;;;;;;51.38;23.85;;;1.70;99.90;;;;;;4990549;28;20042;-83
2021/01/09 08:54:43;;;;;;;65.20;26.70;;;1.70;99.90;;;;;;4989884;28;20140;-82
2021/01/09 08:57:09;;;;;;;56.40;23.00;;;1.70;99.90;;;;;;4993291;28;20079;-82
2021/01/09 08:59:35;;;;;;;63.55;24.88;;;1.80;99.90;;;;;;4999835;28;20046;-82
2021/01/09 09:02:04;;;;;;;52.95;23.45;;;1.80;99.90;;;;;;4989211;28;20049;-82
2021/01/09 09:04:31;;;;;;;62.38;24.05;;;1.90;99.90;;;;;;4992636;28;20034;-82
2021/01/09 09:07:04;;;;;;;59.38;23.50;;;1.90;99.90;;;;;;4996243;28;20399;-82
2021/01/09 09:09:32;;;;;;;52.28;21.73;;;1.90;99.90;;;;;;4995674;28;20034;-81
2021/01/09 09:11:57;;;;;;;51.63;22.20;;;1.80;99.90;;;;;;4994244;28;20049;-81
2021/01/09 09:14:25;;;;;;;54.03;25.02;;;1.90;99.90;;;;;;4998314;28;20035;-81
2021/01/09 09:17:20;;;;;;;53.67;22.63;;;1.90;99.90;;;;;;5048584;27;20388;-74
2021/01/09 09:19:45;;;;;;;57.88;22.83;;;1.90;99.90;;;;;;5034047;28;20033;-73
2021/01/09 09:22:11;;;;;;;48.42;22.17;;;1.90;99.90;;;;;;5043107;28;20100;-74
2021/01/09 09:24:45;;;;;;;58.33;23.73;;;1.90;99.90;;;;;;5041060;28;20029;-74
2021/01/09 09:27:26;;;;;;;51.20;21.75;;;2.00;99.90;;;;;;5039386;28;20057;-74
2021/01/09 09:30:12;;;;;;;50.10;22.08;;;2.10;99.90;;;;;;5039336;28;20324;-74
2021/01/09 09:32:39;;;;;;;56.83;22.10;;;2.00;99.90;;;;;;5038444;28;20038;-74
2021/01/09 09:35:19;;;;;;;54.38;22.83;;;2.00;99.90;;;;;;5039096;28;20037;-73
2021/01/09 09:37:46;;;;;;;47.83;22.85;;;1.90;99.90;;;;;;5035249;28;20033;-75
2021/01/09 09:40:33;;;;;;;53.35;21.85;;;1.80;99.90;;;;;;5037283;28;20515;-75
2021/01/09 09:43:18;;;;;;;48.65;21.98;;;1.90;99.90;;;;;;5053093;28;20048;-75
2021/01/09 09:46:02;;;;;;;47.53;19.98;;;1.80;99.90;;;;;;5037191;28;20034;-74
2021/01/09 09:48:29;;;;;;;46.35;19.50;;;1.70;99.90;;;;;;5037187;28;20034;-74
2021/01/09 09:51:06;;;;;;;46.10;20.70;;;1.70;99.90;;;;;;5031043;28;20064;-74
2021/01/09 09:53:39;;;;;;;43.72;18.65;;;1.70;99.90;;;;;;5038591;28;20052;-74
2021/01/09 09:56:22;;;;;;;49.70;19.13;;;1.70;99.90;;;;;;5037250;28;20643;-74
2021/01/09 09:59:00;;;;;;;41.08;18.27;;;1.80;99.90;;;;;;5035999;28;20492;-73
2021/01/09 10:01:25;;;;;;;42.42;17.70;;;1.90;99.90;;;;;;5036209;28;20082;-73
2021/01/09 10:03:51;;;;;;;40.45;18.10;;;2.00;99.90;;;;;;5036864;28;20469;-74
2021/01/09 10:06:17;;;;;;;43.28;17.67;;;2.00;99.90;;;;;;5037186;28;20051;-74
2021/01/09 10:08:43;;;;;;;40.22;16.35;;;2.10;99.90;;;;;;5036557;28;20069;-74
2021/01/09 10:11:09;;;;;;;46.42;19.15;;;2.20;99.90;;;;;;5035853;28;20069;-74
2021/01/09 10:13:34;;;;;;;43.88;19.20;;;2.40;99.90;;;;;;5037070;28;20136;-73
2021/01/09 10:16:01;;;;;;;38.72;18.63;;;2.30;99.90;;;;;;5036507;28;21715;-73
2021/01/09 10:18:28;;;;;;;36.00;16.80;;;2.30;99.90;;;;;;5039117;28;20037;-73
2021/01/09 10:20:54;;;;;;;42.40;18.45;;;2.20;99.90;;;;;;5036924;28;20033;-73
2021/01/09 10:23:19;;;;;;;44.35;18.92;;;2.20;99.90;;;;;;5039174;28;20107;-74
2021/01/09 10:25:45;;;;;;;38.72;17.65;;;2.30;99.90;;;;;;5039220;28;20037;-74
2021/01/09 10:28:11;;;;;;;33.78;16.30;;;2.30;99.90;;;;;;5027053;28;20128;-74
2021/01/09 10:30:36;;;;;;;36.42;16.52;;;2.30;99.90;;;;;;5026407;28;20079;-73
2021/01/09 10:33:03;;;;;;;35.65;15.77;;;2.30;99.90;;;;;;5025497;28;20040;-73
2021/01/09 10:35:29;;;;;;;35.42;16.83;;;2.30;99.90;;;;;;5024204;28;20080;-73
2021/01/09 10:37:55;;;;;;;36.17;16.77;;;2.30;99.90;;;;;;5025537;28;20032;-74
2021/01/09 10:40:20;;;;;;;35.08;16.33;;;2.20;99.90;;;;;;5021009;28;20505;-73
2021/01/09 10:42:46;;;;;;;40.03;16.08;;;2.10;99.90;;;;;;5024542;28;20177;-74
2021/01/09 10:45:15;;;;;;;41.08;16.60;;;2.10;99.90;;;;;;5022782;28;20512;-73
2021/01/09 10:47:41;;;;;;;34.85;16.52;;;2.10;99.90;;;;;;5019975;28;20037;-75
2021/01/09 10:50:08;;;;;;;34.38;15.10;;;2.10;99.90;;;;;;5024120;28;20037;-73
2021/01/09 10:52:34;;;;;;;32.47;15.07;;;2.00;99.90;;;;;;5025255;28;20056;-74
2021/01/09 10:54:59;;;;;;;32.38;14.80;;;1.90;99.90;;;;;;5018715;28;20569;-73
2021/01/09 10:57:25;;;;;;;31.92;14.82;;;2.00;99.90;;;;;;5015850;28;20036;-73
2021/01/09 10:59:51;;;;;;;33.40;14.55;;;2.10;99.90;;;;;;5018066;28;20037;-73
2021/01/09 11:02:17;;;;;;;33.90;15.57;;;2.20;99.90;;;;;;5033408;28;20052;-73
2021/01/09 11:04:42;;;;;;;34.63;15.88;;;2.20;99.90;;;;;;5026058;28;20037;-73
2021/01/09 11:07:09;;;;;;;43.42;17.52;;;2.30;99.90;;;;;;5021116;28;20492;-75
2021/01/09 11:09:34;;;;;;;35.88;14.65;;;2.40;99.90;;;;;;5026773;28;20037;-73
2021/01/09 11:12:00;;;;;;;30.33;13.93;;;2.30;99.90;;;;;;5024316;28;20022;-73
2021/01/09 11:14:26;;;;;;;40.55;14.60;;;2.30;99.90;;;;;;5012695;28;20378;-73
2021/01/09 11:17:01;;;;;;;32.50;14.85;;;2.40;99.90;;;;;;5001697;28;20057;-75
2021/01/09 11:19:27;;;;;;;33.88;13.90;;;2.30;99.90;;;;;;5002301;28;20401;-74
2021/01/09 11:22:00;;;;;;;28.83;12.82;;;2.30;99.90;;;;;;4991235;28;20040;-75
2021/01/09 11:24:31;;;;;;;32.42;14.57;;;2.40;99.90;;;;;;5013131;28;20037;-75
2021/01/09 11:27:04;;;;;;;32.42;14.77;;;2.50;99.90;;;;;;4981599;28;20049;-75
2021/01/09 11:29:29;;;;;;;40.92;16.80;;;2.50;99.90;;;;;;5006609;28;20272;-75
2021/01/09 11:31:56;;;;;;;33.33;13.60;;;2.60;99.90;;;;;;4981666;28;20149;-74
2021/01/09 11:34:22;;;;;;;37.08;16.85;;;2.90;99.90;;;;;;5025371;28;20025;-74
2021/01/09 11:36:49;;;;;;;41.88;16.90;;;2.80;99.90;;;;;;5026004;28;20040;-73
2021/01/09 11:39:14;;;;;;;44.20;19.10;;;2.90;99.90;;;;;;5012094;28;20033;-72
2021/01/09 11:41:40;;;;;;;31.52;14.18;;;3.20;99.90;;;;;;5018305;28;20090;-73
2021/01/09 11:44:06;;;;;;;30.67;14.40;;;3.50;99.90;;;;;;4998767;28;20060;-74
2021/01/09 11:46:31;;;;;;;28.23;14.43;;;3.60;99.90;;;;;;5001151;28;20032;-74
2021/01/09 11:48:57;;;;;;;29.50;13.52;;;3.70;99.90;;;;;;5014527;28;20056;-74
2021/01/09 11:51:23;;;;;;;26.08;11.80;;;3.50;99.90;;;;;;5000434;28;20124;-74
2021/01/09 11:53:49;;;;;;;26.40;12.00;;;3.10;99.90;;;;;;5001288;28;20112;-74
2021/01/09 11:56:22;;;;;;;21.00;10.70;;;3.00;99.90;;;;;;4979092;28;20093;-74
2021/01/09 11:58:48;;;;;;;23.02;10.27;;;3.00;99.90;;;;;;5004444;28;20057;-74
2021/01/09 12:01:15;;;;;;;24.88;10.50;;;2.90;99.90;;;;;;5013006;28;20159;-75
2021/01/09 12:03:41;;;;;;;18.58;9.23;;;2.80;99.90;;;;;;4978398;28;20038;-74
2021/01/09 12:06:07;;;;;;;16.77;7.88;;;2.70;98.90;;;;;;5026871;28;20155;-74
2021/01/09 12:08:33;;;;;;;20.17;8.93;;;2.60;97.60;;;;;;4985789;28;20072;-74
2021/01/09 12:10:58;;;;;;;15.65;8.48;;;2.60;96.00;;;;;;4992332;28;20044;-73
2021/01/09 12:13:24;;;;;;;19.38;9.23;;;2.70;96.20;;;;;;4982979;28;20485;-74
2021/01/09 12:15:49;;;;;;;16.65;7.82;;;2.60;95.90;;;;;;5014951;28;20517;-73
2021/01/09 12:18:23;;;;;;;18.27;7.78;;;2.60;95.20;;;;;;5019936;28;20299;-74
2021/01/09 12:20:50;;;;;;;20.48;8.35;;;2.50;94.70;;;;;;5018534;28;20136;-74
2021/01/09 12:23:16;;;;;;;19.30;8.20;;;2.60;94.90;;;;;;5017330;28;20143;-75
2021/01/09 12:25:41;;;;;;;17.83;8.70;;;2.60;94.60;;;;;;5031348;28;20577;-74
2021/01/09 12:28:07;;;;;;;18.65;8.70;;;2.70;95.00;;;;;;5040119;28;20159;-75
2021/01/09 12:30:33;;;;;;;14.68;7.32;;;2.80;94.20;;;;;;5023820;28;20035;-76
2021/01/09 12:32:58;;;;;;;17.52;8.07;;;2.70;93.50;;;;;;5020818;28;20450;-74
2021/01/09 12:35:24;;;;;;;17.33;7.85;;;2.70;93.70;;;;;;5021994;28;20045;-74
2021/01/09 12:37:53;;;;;;;15.40;7.90;;;2.60;94.20;;;;;;5021521;28;20112;-74
2021/01/09 12:40:18;;;;;;;19.52;7.57;;;2.50;93.70;;;;;;5022607;28;20092;-73
2021/01/09 12:42:44;;;;;;;17.25;7.60;;;2.60;93.60;;;;;;5014180;28;20141;-73